createdAt,value
2022-10-22T00:01:09.426Z,13.26
2022-10-22T00:03:36.181Z,12.24
2022-10-22T00:06:03.904Z,13.74
2022-10-22T00:08:31.414Z,10.64
2022-10-22T00:10:58.281Z,12.19
2022-10-22T00:13:25.396Z,12.32
2022-10-22T00:15:52.059Z,13.61
2022-10-22T00:18:20.240Z,13.03
2022-10-22T00:20:47.035Z,12.26
2022-10-22T00:23:14.500Z,13.27
2022-10-22T00:25:43.642Z,13.39
2022-10-22T00:28:11.582Z,12.63
2022-10-22T00:30:38.302Z,13.13
2022-10-22T00:33:04.924Z,12.45
2022-10-22T00:35:32.349Z,11.21
2022-10-22T00:38:00.089Z,14.08
2022-10-22T00:40:27.205Z,12.99
2022-10-22T00:42:54.604Z,11.49
2022-10-22T00:45:25.370Z,13.12
2022-10-22T00:48:21.553Z,14.12
2022-10-22T00:50:58.629Z,14.14
2022-10-22T00:53:31.495Z,11.86
2022-10-22T00:55:59.279Z,13.09
2022-10-22T00:58:29.495Z,12.04
2022-10-22T01:00:57.108Z,12.53
2022-10-22T01:03:24.622Z,14.05
2022-10-22T01:05:59.981Z,12.21
2022-10-22T01:08:41.472Z,14.10
2022-10-22T01:11:35.852Z,12.28
2022-10-22T01:14:41.216Z,12.97
2022-10-22T01:17:23.661Z,14.13
2022-10-22T01:20:23.641Z,12.10
2022-10-22T01:23:00.405Z,14.14
2022-10-22T01:25:46.138Z,13.39
2022-10-22T01:28:51.787Z,13.81
2022-10-22T01:31:22.077Z,12.71
2022-10-22T01:33:51.160Z,12.09
2022-10-22T01:36:19.209Z,13.70
2022-10-22T01:38:47.633Z,12.55
2022-10-22T01:41:14.581Z,13.18
2022-10-22T01:43:42.197Z,13.84
2022-10-22T01:46:11.660Z,11.14
2022-10-22T01:49:16.726Z,14.21
2022-10-22T01:52:03.693Z,11.45
2022-10-22T01:54:42.653Z,14.19
2022-10-22T01:57:17.844Z,12.66
2022-10-22T01:59:54.657Z,14.18
2022-10-22T02:02:40.938Z,14.15
2022-10-22T02:05:36.206Z,12.86
2022-10-22T02:08:09.154Z,12.34
2022-10-22T02:10:39.585Z,10.87
2022-10-22T02:13:12.696Z,14.20
2022-10-22T02:15:42.027Z,12.92
2022-10-22T02:18:10.139Z,12.57
2022-10-22T02:20:41.945Z,12.39
2022-10-22T02:23:10.521Z,13.09
2022-10-22T02:25:45.025Z,14.20
2022-10-22T02:28:24.699Z,14.19
2022-10-22T02:30:56.656Z,12.97
2022-10-22T02:33:28.751Z,12.19
2022-10-22T02:35:56.299Z,14.15
2022-10-22T02:38:25.161Z,14.13
2022-10-22T02:40:51.993Z,11.51
2022-10-22T02:43:19.767Z,13.80
2022-10-22T02:45:47.305Z,14.01
2022-10-22T02:48:14.381Z,13.94
2022-10-22T02:50:42.001Z,12.51
2022-10-22T02:53:08.639Z,12.24
2022-10-22T02:55:35.469Z,12.57
2022-10-22T02:58:03.465Z,13.48
2022-10-22T03:00:30.285Z,11.55
2022-10-22T03:02:56.910Z,12.99
2022-10-22T03:05:23.661Z,13.63
2022-10-22T03:07:50.332Z,11.91
2022-10-22T03:10:17.280Z,10.18
2022-10-22T03:12:44.037Z,11.43
2022-10-22T03:15:10.745Z,11.39
2022-10-22T03:17:37.562Z,11.77
2022-10-22T03:20:05.661Z,11.51
2022-10-22T03:22:33.985Z,11.90
2022-10-22T03:25:07.821Z,12.28
2022-10-22T03:27:37.657Z,13.07
2022-10-22T03:30:05.354Z,11.68
2022-10-22T03:32:32.128Z,11.12
2022-10-22T03:37:31.727Z,10.66
2022-10-22T03:39:58.616Z,11.56
2022-10-22T03:42:25.376Z,9.85
2022-10-22T03:44:52.805Z,11.50
2022-10-22T03:47:21.143Z,10.83
2022-10-22T03:49:47.778Z,11.85
2022-10-22T03:52:15.193Z,12.01
2022-10-22T03:54:42.827Z,10.22
2022-10-22T03:57:11.282Z,13.26
2022-10-22T03:59:40.912Z,12.16
2022-10-22T04:02:08.699Z,13.25
2022-10-22T04:04:36.050Z,10.77
2022-10-22T04:07:02.892Z,11.90
2022-10-22T04:09:34.222Z,12.02
2022-10-22T04:12:01.337Z,11.60
2022-10-22T04:14:28.043Z,11.79
2022-10-22T04:16:55.653Z,12.34
2022-10-22T04:19:22.317Z,11.68
2022-10-22T04:21:49.307Z,11.91
2022-10-22T04:24:16.734Z,13.08
2022-10-22T04:26:43.696Z,12.60
2022-10-22T04:29:15.932Z,12.97
2022-10-22T04:31:43.549Z,11.84
2022-10-22T04:34:10.165Z,11.70
2022-10-22T04:36:36.830Z,11.01
2022-10-22T04:39:04.734Z,11.82
2022-10-22T04:41:37.087Z,12.83
2022-10-22T04:44:04.932Z,11.65
2022-10-22T04:46:34.583Z,11.45
2022-10-22T04:49:03.794Z,10.76
2022-10-22T04:51:31.819Z,12.25
2022-10-22T04:53:58.562Z,11.83
2022-10-22T04:56:27.877Z,12.54
2022-10-22T04:58:57.356Z,11.03
2022-10-22T05:01:32.335Z,10.84
2022-10-22T05:04:01.239Z,10.74
2022-10-22T05:06:29.800Z,10.89
2022-10-22T05:08:58.978Z,11.44
2022-10-22T05:11:29.096Z,11.09
2022-10-22T05:13:57.392Z,11.90
2022-10-22T05:16:24.838Z,11.52
2022-10-22T05:18:54.132Z,10.50
2022-10-22T05:21:21.933Z,10.69
2022-10-22T05:23:50.279Z,11.13
2022-10-22T05:26:21.807Z,12.31
2022-10-22T05:28:49.638Z,12.32
2022-10-22T05:31:17.092Z,11.63
2022-10-22T05:33:44.319Z,11.50
2022-10-22T05:36:16.155Z,10.95
2022-10-22T05:38:43.446Z,9.85
2022-10-22T05:41:13.068Z,11.43
2022-10-22T05:43:40.344Z,12.17
2022-10-22T05:46:22.969Z,12.21
2022-10-22T05:48:58.270Z,9.19
2022-10-22T05:51:26.689Z,11.04
2022-10-22T05:53:58.815Z,12.24
2022-10-22T05:56:27.070Z,11.01
2022-10-22T05:58:53.768Z,11.37
2022-10-22T06:01:27.435Z,8.94
2022-10-22T06:03:55.948Z,9.15
2022-10-22T06:06:39.602Z,12.47
2022-10-22T06:09:06.384Z,12.54
2022-10-22T06:11:35.185Z,12.60
2022-10-22T06:14:02.915Z,10.85
2022-10-22T06:16:30.423Z,9.81
2022-10-22T06:19:01.049Z,10.29
2022-10-22T06:21:29.208Z,11.56
2022-10-22T06:23:58.835Z,10.04
2022-10-22T06:26:25.828Z,12.38
2022-10-22T06:28:52.939Z,12.30
2022-10-22T06:31:20.511Z,10.80
2022-10-22T06:33:47.086Z,11.73
2022-10-22T06:36:18.141Z,12.98
2022-10-22T06:38:45.169Z,12.18
2022-10-22T06:41:15.357Z,11.68
2022-10-22T06:43:47.772Z,10.74
2022-10-22T06:46:19.856Z,11.22
2022-10-22T06:48:52.456Z,11.78
2022-10-22T06:51:21.144Z,13.06
2022-10-22T06:53:48.074Z,11.00
2022-10-22T06:56:17.719Z,13.02
2022-10-22T06:58:48.298Z,13.02
2022-10-22T07:01:16.925Z,11.35
2022-10-22T07:03:44.401Z,10.43
2022-10-22T07:06:13.959Z,11.75
2022-10-22T07:08:42.179Z,12.34
2022-10-22T07:11:12.050Z,13.22
2022-10-22T07:13:38.626Z,13.19
2022-10-22T07:16:07.137Z,13.88
2022-10-22T07:18:35.708Z,14.35
2022-10-22T07:21:02.413Z,14.50
2022-10-22T07:23:29.804Z,14.72
2022-10-22T07:28:29.759Z,17.40
2022-10-22T07:30:56.394Z,17.20
2022-10-22T07:33:23.186Z,18.25
2022-10-22T07:35:49.811Z,16.79
2022-10-22T07:38:16.462Z,18.56
2022-10-22T07:40:43.068Z,20.23
2022-10-22T07:43:11.173Z,20.76
2022-10-22T07:45:37.778Z,21.13
2022-10-22T07:48:04.848Z,20.60
2022-10-22T07:50:31.587Z,21.35
2022-10-22T07:52:58.543Z,21.12
2022-10-22T07:55:25.697Z,21.44
2022-10-22T07:57:52.759Z,21.25
2022-10-22T08:00:23.041Z,19.63
2022-10-22T08:02:52.045Z,18.44
2022-10-22T08:05:19.190Z,20.36
2022-10-22T08:07:45.937Z,19.39
2022-10-22T08:10:13.933Z,16.53
2022-10-22T08:12:42.454Z,17.74
2022-10-22T08:15:09.923Z,16.49
2022-10-22T08:17:38.942Z,16.84
2022-10-22T08:20:06.187Z,16.68
2022-10-22T08:22:32.964Z,17.31
2022-10-22T08:25:00.535Z,16.04
2022-10-22T08:27:27.286Z,15.39
2022-10-22T08:29:54.012Z,17.28
2022-10-22T08:32:20.875Z,15.55
2022-10-22T08:34:47.703Z,15.12
2022-10-22T08:37:14.688Z,15.21
2022-10-22T08:39:42.758Z,12.80
2022-10-22T08:42:37.257Z,17.02
2022-10-22T08:45:13.541Z,17.24
2022-10-22T08:47:55.489Z,17.54
2022-10-22T08:50:45.570Z,16.48
2022-10-22T08:53:27.911Z,16.80
2022-10-22T08:55:54.719Z,16.40
2022-10-22T08:58:41.978Z,17.96
2022-10-22T09:01:20.931Z,17.88
2022-10-22T09:03:57.240Z,17.29
2022-10-22T14:45:56.102Z,18.85
2022-10-22T14:48:24.225Z,18.67
2022-10-22T14:50:51.211Z,20.23
2022-10-22T14:53:18.169Z,18.87
2022-10-22T14:55:47.302Z,16.74
2022-10-22T14:58:14.858Z,19.20
2022-10-22T15:00:42.885Z,19.07
2022-10-22T15:03:10.173Z,19.77
2022-10-22T15:05:43.390Z,17.62
2022-10-22T15:08:14.878Z,18.28
2022-10-22T15:10:41.920Z,19.38
2022-10-22T15:13:09.172Z,18.28
2022-10-22T15:15:39.443Z,18.91
2022-10-22T15:18:07.171Z,19.00
2022-10-22T15:20:33.937Z,16.48
2022-10-22T15:23:00.724Z,18.66
2022-10-22T15:25:27.688Z,17.26
2022-10-22T15:27:58.469Z,19.53
2022-10-22T15:30:31.525Z,18.28
2022-10-22T15:32:58.210Z,17.74
2022-10-22T15:35:28.556Z,17.84
2022-10-22T15:37:55.206Z,17.14
2022-10-22T15:40:21.898Z,17.46
2022-10-22T15:42:48.566Z,15.99
2022-10-22T15:45:15.804Z,16.69
2022-10-22T15:47:47.616Z,17.06
2022-10-22T15:50:15.116Z,17.91
2022-10-22T15:52:42.279Z,17.50
2022-10-22T15:55:10.641Z,17.51
2022-10-22T15:57:38.439Z,16.39
2022-10-22T16:00:06.338Z,17.16
2022-10-22T16:02:39.064Z,16.62
2022-10-22T16:05:06.896Z,16.68
2022-10-22T16:07:33.473Z,14.85
2022-10-22T16:10:01.554Z,17.40
2022-10-22T16:12:28.229Z,16.00
2022-10-22T16:14:54.873Z,16.52
2022-10-22T16:17:21.563Z,16.46
2022-10-22T16:19:48.588Z,16.24
2022-10-22T16:22:15.799Z,14.58
2022-10-22T16:24:43.129Z,14.66
2022-10-22T16:27:10.826Z,15.60
2022-10-22T16:29:39.297Z,16.94
2022-10-22T16:32:06.292Z,16.49
2022-10-22T16:34:32.971Z,16.52
2022-10-22T16:36:59.589Z,14.83
2022-10-22T16:39:26.237Z,14.77
2022-10-22T16:41:52.823Z,16.04
2022-10-22T16:44:19.646Z,15.47
2022-10-22T16:46:46.560Z,16.52
2022-10-22T16:49:13.254Z,16.54
2022-10-22T16:51:39.888Z,14.61
2022-10-22T16:54:09.715Z,15.51
2022-10-22T16:56:38.931Z,16.65
2022-10-22T16:59:06.764Z,16.68
2022-10-22T17:01:37.939Z,16.68
2022-10-22T17:04:07.213Z,15.02
2022-10-22T17:06:33.930Z,15.40
2022-10-22T17:09:00.733Z,16.01
2022-10-22T17:11:30.070Z,14.79
2022-10-22T17:13:57.153Z,15.25
2022-10-22T17:16:24.924Z,14.82
2022-10-22T17:18:53.897Z,15.00
2022-10-22T17:21:21.339Z,13.84
2022-10-22T17:23:48.414Z,16.08
2022-10-22T17:26:20.827Z,14.32
2022-10-22T17:28:48.705Z,13.43
2022-10-22T17:31:15.472Z,16.09
2022-10-22T17:33:42.296Z,14.25
2022-10-22T17:36:10.953Z,14.76
2022-10-22T17:38:38.933Z,13.44
2022-10-22T17:41:07.503Z,13.40
2022-10-22T17:43:37.848Z,13.82
2022-10-22T17:46:13.319Z,15.58
2022-10-22T17:48:40.321Z,13.72
2022-10-22T17:51:08.631Z,14.30
2022-10-22T17:53:35.771Z,13.57
2022-10-22T17:56:09.593Z,14.34
2022-10-22T17:58:36.608Z,13.25
2022-10-22T18:01:03.804Z,12.17
2022-10-22T18:03:30.742Z,15.20
2022-10-22T18:06:06.027Z,14.12
2022-10-22T18:08:33.131Z,14.58
2022-10-22T18:11:00.222Z,13.86
2022-10-22T18:13:26.882Z,15.24
2022-10-22T18:15:55.120Z,14.01
2022-10-22T18:18:22.990Z,12.80
2022-10-22T18:20:50.741Z,13.24
2022-10-22T18:23:20.717Z,12.83
2022-10-22T18:25:48.679Z,13.79
2022-10-22T18:28:17.784Z,12.78
2022-10-22T18:30:46.128Z,14.70
2022-10-22T18:33:15.281Z,13.61
2022-10-22T18:35:42.167Z,13.65
2022-10-22T18:38:10.125Z,14.42
2022-10-22T18:40:44.696Z,14.71
2022-10-22T18:43:11.825Z,12.46
2022-10-22T18:45:43.367Z,10.95
2022-10-22T18:48:10.620Z,14.56
2022-10-22T18:50:37.435Z,13.72
2022-10-22T18:53:04.367Z,13.87
2022-10-22T18:55:31.485Z,12.71
2022-10-22T18:57:58.299Z,14.50
2022-10-22T19:00:26.701Z,12.31
2022-10-22T19:02:54.880Z,12.76
2022-10-22T19:05:22.054Z,10.50
2022-10-22T19:07:51.983Z,13.23
2022-10-22T19:10:18.863Z,13.30
2022-10-22T19:12:45.668Z,11.84
2022-10-22T19:15:12.611Z,10.22
2022-10-22T19:17:39.429Z,12.10
2022-10-22T19:20:07.279Z,14.20
2022-10-22T19:22:34.159Z,14.17
2022-10-22T19:25:01.373Z,11.79
2022-10-22T19:27:29.311Z,11.15
2022-10-22T19:29:56.334Z,11.82
2022-10-22T19:32:24.436Z,10.69
2022-10-22T19:34:53.554Z,13.13
2022-10-22T19:37:20.860Z,13.05
2022-10-22T19:39:49.797Z,13.09
2022-10-22T19:42:16.547Z,12.27
2022-10-22T19:44:43.283Z,13.91
2022-10-22T19:47:11.337Z,13.87
2022-10-22T19:49:38.021Z,11.55
2022-10-22T19:52:04.809Z,12.12
2022-10-22T19:54:31.432Z,11.63
2022-10-22T19:56:58.098Z,12.92
2022-10-22T19:59:28.659Z,12.55
2022-10-22T20:01:57.966Z,13.33
2022-10-22T20:04:26.763Z,12.12
2022-10-22T20:06:58.776Z,12.78
2022-10-22T20:09:25.511Z,13.23
2022-10-22T20:11:52.125Z,12.40
2022-10-22T20:14:18.732Z,13.08
2022-10-22T20:16:45.694Z,13.20
2022-10-22T20:19:16.196Z,11.38
2022-10-22T20:21:43.875Z,11.93
2022-10-22T20:24:11.081Z,13.02
2022-10-22T20:26:37.879Z,13.78
2022-10-22T20:29:04.479Z,11.87
2022-10-22T20:31:32.963Z,13.78
2022-10-22T20:34:01.207Z,13.39
2022-10-22T20:36:29.939Z,13.74
2022-10-22T20:39:06.336Z,12.91
2022-10-22T20:41:34.775Z,12.63
2022-10-22T20:44:01.868Z,12.16
2022-10-22T20:46:31.282Z,12.16
2022-10-22T20:49:04.434Z,11.15
2022-10-22T20:51:31.683Z,13.36
2022-10-22T20:53:58.309Z,11.29
2022-10-22T20:56:25.190Z,11.97
2022-10-22T20:58:57.253Z,12.45
2022-10-22T21:01:24.312Z,11.83
2022-10-22T21:03:52.530Z,12.15
2022-10-22T21:06:23.561Z,12.15
2022-10-22T21:08:51.558Z,13.54
2022-10-22T21:11:18.941Z,12.96
2022-10-22T21:13:45.711Z,12.66
2022-10-22T21:16:14.556Z,13.55
2022-10-22T21:18:41.199Z,13.10
2022-10-22T21:21:09.025Z,12.30
2022-10-22T21:23:36.543Z,13.55
2022-10-22T21:26:04.205Z,13.54
2022-10-22T21:28:35.412Z,13.53
2022-10-22T21:31:08.235Z,13.50
2022-10-22T21:33:39.511Z,12.57
2022-10-22T21:36:08.937Z,10.77
2022-10-22T21:38:37.102Z,13.46
2022-10-22T21:41:08.231Z,11.72
2022-10-22T21:43:37.673Z,12.50
2022-10-22T21:46:08.189Z,11.56
2022-10-22T21:48:36.599Z,13.30
2022-10-22T21:51:08.901Z,13.33
2022-10-22T21:53:36.724Z,11.72
2022-10-22T21:56:04.551Z,11.33
2022-10-22T21:58:31.344Z,11.33
2022-10-22T22:00:58.542Z,13.38
2022-10-22T22:03:25.191Z,12.55
2022-10-22T22:05:57.869Z,12.61
2022-10-22T22:08:24.948Z,11.23
2022-10-22T22:10:52.184Z,12.30
2022-10-22T22:13:19.824Z,13.04
2022-10-22T22:15:46.441Z,11.36
2022-10-22T22:18:13.061Z,13.20
2022-10-22T22:20:39.742Z,11.67
2022-10-22T22:23:06.615Z,11.69
2022-10-22T22:25:33.261Z,11.10
2022-10-22T22:28:00.044Z,13.21
2022-10-22T22:30:28.219Z,11.63
2022-10-22T22:32:54.924Z,12.71
2022-10-22T22:35:22.017Z,11.87
2022-10-22T22:37:48.675Z,12.72
2022-10-22T22:40:15.240Z,10.47
2022-10-22T22:42:41.846Z,10.52
2022-10-22T22:45:08.716Z,13.04
2022-10-22T22:47:35.410Z,11.75
2022-10-22T22:50:02.022Z,11.06
2022-10-22T22:52:28.659Z,11.78
2022-10-22T22:54:55.282Z,12.58
2022-10-22T22:57:21.943Z,11.97
2022-10-22T22:59:52.004Z,13.03
2022-10-22T23:02:18.737Z,13.03
2022-10-22T23:04:45.324Z,11.27
2022-10-22T23:07:12.011Z,11.51
2022-10-22T23:09:38.666Z,10.05
2022-10-22T23:12:05.626Z,10.34
2022-10-22T23:14:32.433Z,12.93
2022-10-22T23:16:59.073Z,11.69
2022-10-22T23:19:25.676Z,12.73
2022-10-22T23:21:54.626Z,12.86
2022-10-22T23:24:27.655Z,10.44
2022-10-22T23:26:56.007Z,11.94
2022-10-22T23:29:27.995Z,12.53
2022-10-22T23:31:55.348Z,11.41
2022-10-22T23:34:24.850Z,11.24
2022-10-22T23:36:52.485Z,12.00
2022-10-22T23:39:22.115Z,12.65
2022-10-22T23:41:49.083Z,11.99
2022-10-22T23:44:16.033Z,12.65
2022-10-22T23:46:43.026Z,11.34
2022-10-22T23:49:10.531Z,12.62
2022-10-22T23:51:38.382Z,10.01
2022-10-22T23:54:08.104Z,12.23
2022-10-22T23:56:35.530Z,10.54
2022-10-22T23:59:02.929Z,11.81
